createdAt,value
2018-05-04T00:02:15.121Z,52.92
2018-05-04T00:04:43.189Z,52.76
2018-05-04T00:07:11.215Z,53.56
2018-05-04T00:09:39.217Z,52.59
2018-05-04T00:12:07.230Z,52.25
2018-05-04T00:14:35.257Z,52.30
2018-05-04T00:17:03.294Z,51.68
2018-05-04T00:19:31.304Z,51.45
2018-05-04T00:21:59.471Z,52.09
2018-05-04T00:24:27.422Z,53.32
2018-05-04T00:26:55.457Z,52.86
2018-05-04T00:29:23.927Z,51.97
2018-05-04T00:31:51.900Z,51.34
2018-05-04T00:34:19.918Z,51.75
2018-05-04T00:36:47.896Z,51.53
2018-05-04T00:39:15.851Z,52.05
2018-05-04T00:41:43.839Z,51.33
2018-05-04T00:44:11.849Z,52.98
2018-05-04T00:46:39.831Z,54.65
2018-05-04T00:49:07.903Z,52.93
2018-05-04T00:51:35.920Z,52.23
2018-05-04T00:54:15.763Z,51.99
2018-05-04T00:56:43.821Z,54.40
2018-05-04T00:59:11.810Z,53.07
2018-05-04T01:01:40.699Z,54.23
2018-05-04T01:04:08.656Z,55.11
2018-05-04T01:06:36.628Z,53.81
2018-05-04T01:09:05.585Z,52.46
2018-05-04T01:11:33.546Z,53.63
2018-05-04T01:14:01.602Z,56.36
2018-05-04T01:16:29.598Z,58.88
2018-05-04T01:18:57.590Z,55.96
2018-05-04T01:21:25.596Z,54.84
2018-05-04T01:23:53.557Z,57.41
2018-05-04T01:26:21.635Z,59.69
2018-05-04T01:28:49.628Z,57.46
2018-05-04T01:31:17.877Z,56.02
2018-05-04T01:33:45.898Z,55.64
2018-05-04T01:36:13.977Z,62.24
2018-05-04T01:38:42.011Z,60.10
2018-05-04T01:41:10.104Z,58.58
2018-05-04T01:43:38.036Z,59.64
2018-05-04T01:46:06.032Z,58.22
2018-05-04T01:48:34.017Z,58.38
2018-05-04T01:51:02.029Z,56.01
2018-05-04T01:53:30.034Z,55.40
2018-05-04T01:55:58.065Z,55.17
2018-05-04T01:58:26.137Z,54.97
2018-05-04T02:00:54.231Z,55.77
2018-05-04T02:03:22.301Z,54.67
2018-05-04T02:05:50.290Z,54.93
2018-05-04T02:08:18.254Z,55.52
2018-05-04T02:10:46.289Z,54.66
2018-05-04T02:13:14.311Z,54.17
2018-05-04T02:15:42.368Z,54.40
2018-05-04T02:18:10.369Z,53.87
2018-05-04T02:20:38.371Z,53.86
2018-05-04T02:23:06.330Z,53.80
2018-05-04T02:25:34.345Z,54.32
2018-05-04T02:28:02.369Z,53.85
2018-05-04T02:30:30.498Z,53.07
2018-05-04T02:32:58.961Z,54.39
2018-05-04T02:35:27.187Z,53.96
2018-05-04T02:37:55.163Z,56.97
2018-05-04T02:40:23.191Z,57.21
2018-05-04T02:42:51.217Z,57.24
2018-05-04T02:45:19.246Z,57.43
2018-05-04T02:47:47.301Z,56.58
2018-05-04T02:50:15.304Z,57.69
2018-05-04T02:52:43.308Z,60.40
2018-05-04T02:55:11.302Z,58.28
2018-05-04T02:57:39.456Z,57.94
2018-05-04T03:00:07.473Z,58.00
2018-05-04T03:02:35.518Z,60.56
2018-05-04T03:05:03.625Z,57.95
2018-05-04T03:07:31.795Z,57.41
2018-05-04T03:09:59.774Z,57.06
2018-05-04T03:12:27.761Z,57.56
2018-05-04T03:14:55.767Z,57.87
2018-05-04T03:17:23.804Z,56.36
2018-05-04T03:19:51.833Z,55.93
2018-05-04T03:22:19.820Z,55.77
2018-05-04T03:24:48.920Z,57.38
2018-05-04T03:27:16.935Z,56.51
2018-05-04T03:29:44.942Z,55.99
2018-05-04T03:32:12.966Z,55.48
2018-05-04T03:34:41.442Z,54.99
2018-05-04T03:37:09.510Z,55.42
2018-05-04T03:39:37.486Z,54.92
2018-05-04T03:42:05.521Z,54.92
2018-05-04T03:44:33.494Z,54.58
2018-05-04T03:47:01.622Z,54.81
2018-05-04T03:49:29.650Z,55.06
2018-05-04T03:51:57.729Z,54.96
2018-05-04T03:54:25.753Z,54.88
2018-05-04T03:57:05.435Z,54.61
2018-05-04T03:59:45.864Z,54.22
2018-05-04T04:02:25.983Z,53.69
2018-05-04T04:04:54.026Z,54.09
2018-05-04T04:07:22.014Z,54.26
2018-05-04T04:09:50.591Z,54.82
2018-05-04T04:12:18.546Z,54.48
2018-05-04T04:14:46.662Z,54.20
2018-05-04T04:17:14.726Z,54.90
2018-05-04T04:19:42.771Z,53.31
2018-05-04T04:22:10.761Z,53.66
2018-05-04T04:24:38.740Z,56.00
2018-05-04T04:27:06.772Z,54.10
2018-05-04T04:29:34.815Z,53.31
2018-05-04T04:32:02.863Z,54.42
2018-05-04T04:34:30.994Z,56.81
2018-05-04T04:36:59.438Z,58.42
2018-05-04T04:39:27.356Z,56.41
2018-05-04T04:41:55.370Z,57.10
2018-05-04T04:44:23.434Z,57.38
2018-05-04T04:46:51.442Z,59.75
2018-05-04T04:49:19.436Z,61.21
2018-05-04T04:51:47.477Z,57.75
2018-05-04T04:54:15.608Z,58.47
2018-05-04T04:56:43.615Z,60.30
2018-05-04T04:59:13.584Z,56.83
2018-05-04T05:01:42.244Z,59.71
2018-05-04T05:04:10.289Z,61.61
2018-05-04T05:06:38.326Z,61.11
2018-05-04T05:09:06.966Z,59.96
2018-05-04T05:11:35.030Z,59.84
2018-05-04T05:14:03.126Z,58.76
2018-05-04T05:16:31.171Z,60.15
2018-05-04T05:18:59.170Z,60.45
2018-05-04T05:21:27.259Z,60.65
2018-05-04T05:23:55.325Z,60.50
2018-05-04T05:26:23.334Z,60.22
2018-05-04T05:28:51.357Z,58.75
2018-05-04T05:31:19.364Z,58.92
2018-05-04T05:33:47.407Z,59.21
2018-05-04T05:36:15.379Z,58.34
2018-05-04T05:38:43.653Z,58.38
2018-05-04T05:41:11.776Z,57.80
2018-05-04T05:43:39.717Z,58.09
2018-05-04T05:46:07.682Z,59.67
2018-05-04T05:48:35.747Z,58.17
2018-05-04T05:51:03.649Z,54.36
2018-05-04T05:53:31.632Z,53.12
2018-05-04T05:55:59.670Z,51.67
2018-05-04T05:58:27.654Z,52.67
2018-05-04T06:00:55.713Z,50.61
2018-05-04T06:03:23.690Z,49.63
2018-05-04T06:05:51.714Z,49.54
2018-05-04T06:08:19.776Z,47.95
2018-05-04T06:10:47.761Z,49.65
2018-05-04T06:13:15.791Z,47.81
2018-05-04T06:15:43.946Z,47.26
2018-05-04T06:18:11.938Z,48.08
2018-05-04T06:20:39.922Z,45.15
2018-05-04T06:23:07.897Z,45.29
2018-05-04T06:25:36.025Z,43.54
2018-05-04T06:28:04.051Z,41.39
2018-05-04T06:30:32.129Z,41.34
2018-05-04T06:33:00.197Z,38.62
2018-05-04T06:35:28.285Z,39.32
2018-05-04T06:37:56.318Z,39.19
2018-05-04T06:40:24.623Z,38.76
2018-05-04T06:42:52.611Z,38.39
2018-05-04T06:45:20.658Z,37.86
2018-05-04T06:47:48.715Z,37.60
2018-05-04T06:50:16.706Z,38.12
2018-05-04T06:52:44.683Z,36.31
2018-05-04T06:55:12.728Z,36.53
2018-05-04T06:57:40.726Z,36.73
2018-05-04T07:00:08.741Z,35.79
2018-05-04T07:02:36.836Z,36.13
2018-05-04T07:05:04.880Z,36.69
2018-05-04T07:07:32.878Z,35.37
2018-05-04T07:10:00.937Z,35.71
2018-05-04T07:12:28.940Z,33.63
2018-05-04T07:14:56.961Z,33.27
2018-05-04T07:17:25.027Z,33.07
2018-05-04T07:19:53.041Z,33.92
2018-05-04T07:22:21.051Z,35.79
2018-05-04T07:24:49.086Z,34.27
2018-05-04T07:27:17.176Z,33.23
2018-05-04T07:29:45.218Z,32.31
2018-05-04T07:32:13.175Z,32.78
2018-05-04T07:34:41.303Z,32.82
2018-05-04T07:37:09.256Z,31.56
2018-05-04T07:39:37.300Z,31.32
2018-05-04T07:42:05.550Z,31.21
2018-05-04T07:44:33.581Z,30.57
2018-05-04T07:47:01.639Z,31.72
2018-05-04T07:49:29.696Z,31.98
2018-05-04T07:51:57.663Z,30.86
2018-05-04T07:54:25.676Z,31.11
2018-05-04T07:56:53.707Z,31.38
2018-05-04T07:59:21.734Z,29.79
2018-05-04T08:01:49.739Z,31.68
2018-05-04T08:04:17.747Z,32.19
2018-05-04T08:06:45.621Z,32.14
2018-05-04T08:09:13.687Z,33.47
2018-05-04T08:11:41.688Z,33.21
2018-05-04T08:14:09.702Z,32.54
2018-05-04T08:16:37.713Z,31.96
2018-05-04T08:19:05.688Z,30.84
2018-05-04T08:21:33.702Z,30.07
2018-05-04T08:24:01.771Z,28.90
2018-05-04T08:26:29.828Z,26.58
2018-05-04T08:28:57.790Z,26.05
2018-05-04T08:31:25.816Z,25.28
2018-05-04T08:33:53.851Z,24.31
2018-05-04T08:36:21.982Z,22.69
2018-05-04T08:38:50.022Z,23.44
2018-05-04T08:41:17.989Z,23.18
2018-05-04T08:43:46.300Z,23.36
2018-05-04T08:46:14.401Z,22.72
2018-05-04T08:48:42.429Z,22.99
2018-05-04T08:51:10.445Z,24.00
2018-05-04T08:53:38.469Z,24.24
2018-05-04T08:56:06.593Z,24.13
2018-05-04T08:58:34.579Z,24.87
2018-05-04T09:01:03.151Z,23.93
2018-05-04T09:03:31.231Z,22.92
2018-05-04T09:05:59.446Z,19.51
2018-05-04T09:08:27.568Z,19.40
2018-05-04T09:10:55.570Z,20.06
2018-05-04T09:13:23.663Z,19.40
2018-05-04T09:15:51.657Z,19.66
2018-05-04T09:18:19.753Z,19.06
2018-05-04T09:20:47.747Z,17.87
2018-05-04T09:23:15.752Z,17.71
2018-05-04T09:25:43.771Z,17.31
2018-05-04T09:28:12.798Z,17.99
2018-05-04T09:30:40.801Z,17.14
2018-05-04T09:33:08.865Z,17.50
2018-05-04T09:35:37.008Z,16.78
2018-05-04T09:38:05.046Z,18.56
2018-05-04T09:40:33.058Z,16.71
2018-05-04T09:43:01.098Z,17.98
2018-05-04T09:45:29.505Z,17.48
2018-05-04T09:47:57.551Z,16.45
2018-05-04T09:50:25.521Z,16.48
2018-05-04T09:52:53.555Z,16.87
2018-05-04T09:55:21.664Z,16.83
2018-05-04T09:57:49.772Z,17.65
2018-05-04T10:00:17.816Z,16.91
2018-05-04T10:02:45.878Z,17.53
2018-05-04T10:05:13.922Z,17.53
2018-05-04T10:07:41.912Z,16.64
2018-05-04T10:10:09.867Z,15.95
2018-05-04T10:12:37.890Z,16.55
2018-05-04T10:15:05.928Z,16.29
2018-05-04T10:17:33.989Z,15.67
2018-05-04T10:20:02.011Z,16.17
2018-05-04T10:22:29.970Z,16.00
2018-05-04T10:24:57.975Z,16.36
2018-05-04T10:27:26.025Z,14.45
2018-05-04T10:29:54.058Z,14.51
2018-05-04T10:32:22.162Z,14.54
2018-05-04T10:34:50.264Z,15.08
2018-05-04T10:37:18.367Z,14.75
2018-05-04T10:39:46.433Z,14.97
2018-05-04T10:42:14.426Z,14.50
2018-05-04T10:44:42.497Z,14.38
2018-05-04T10:47:10.761Z,13.50
2018-05-04T10:49:38.763Z,14.99
2018-05-04T10:52:06.940Z,16.42
2018-05-04T10:54:35.090Z,17.64
2018-05-04T10:57:03.302Z,18.25
2018-05-04T10:59:31.364Z,17.93
2018-05-04T11:01:59.519Z,18.77
2018-05-04T11:04:27.659Z,18.93
2018-05-04T11:06:55.665Z,20.06
2018-05-04T11:09:23.690Z,20.20
2018-05-04T11:11:51.809Z,20.83
2018-05-04T11:14:19.850Z,21.23
2018-05-04T11:16:47.963Z,20.36
2018-05-04T11:19:15.998Z,21.85
2018-05-04T11:21:44.049Z,22.45
2018-05-04T11:24:12.209Z,22.43
2018-05-04T11:26:40.297Z,22.45
2018-05-04T11:29:08.350Z,22.78
2018-05-04T11:31:36.515Z,23.20
2018-05-04T11:34:04.487Z,23.69
2018-05-04T11:36:32.497Z,23.71
2018-05-04T11:39:00.790Z,24.57
2018-05-04T11:41:28.764Z,23.97
2018-05-04T11:43:56.847Z,23.72
2018-05-04T11:46:24.861Z,23.25
2018-05-04T11:48:53.285Z,23.16
2018-05-04T11:51:21.659Z,23.04
2018-05-04T11:53:49.741Z,21.99
2018-05-04T11:56:17.745Z,21.82
2018-05-04T11:58:45.700Z,19.53
2018-05-04T12:01:13.689Z,19.22
2018-05-04T12:03:41.738Z,19.13
2018-05-04T12:06:09.758Z,18.16
2018-05-04T12:08:37.757Z,19.22
2018-05-04T12:11:05.796Z,19.95
2018-05-04T12:13:33.939Z,21.75
2018-05-04T12:16:01.906Z,21.55
2018-05-04T12:18:29.962Z,22.29
2018-05-04T12:20:57.969Z,22.68
2018-05-04T12:23:25.958Z,23.04
2018-05-04T12:25:53.965Z,22.96
2018-05-04T12:28:22.010Z,23.82
2018-05-04T12:30:50.054Z,23.70
2018-05-04T12:33:18.085Z,23.46
2018-05-04T12:35:46.119Z,25.39
2018-05-04T12:38:14.052Z,24.84
2018-05-04T12:40:42.100Z,24.42
2018-05-04T12:43:10.054Z,25.61
2018-05-04T12:45:38.031Z,25.84
2018-05-04T12:48:06.142Z,25.16
2018-05-04T12:50:34.848Z,25.40
2018-05-04T12:53:02.862Z,26.53
2018-05-04T12:55:30.911Z,25.20
2018-05-04T12:57:58.959Z,26.25
2018-05-04T13:00:26.986Z,26.57
2018-05-04T13:02:54.982Z,25.30
2018-05-04T13:05:22.997Z,26.20
2018-05-04T13:07:51.053Z,26.42
2018-05-04T13:10:19.088Z,28.26
2018-05-04T13:12:47.106Z,29.46
2018-05-04T13:15:15.155Z,28.38
2018-05-04T13:17:43.146Z,27.86
2018-05-04T13:20:11.130Z,28.44
2018-05-04T13:22:39.150Z,28.88
2018-05-04T13:25:07.116Z,27.58
2018-05-04T13:27:35.097Z,26.53
2018-05-04T13:30:03.133Z,27.40
2018-05-04T13:32:31.150Z,26.76
2018-05-04T13:34:59.174Z,25.79
2018-05-04T13:37:27.232Z,26.28
2018-05-04T13:39:55.409Z,25.62
2018-05-04T13:42:23.514Z,24.73
2018-05-04T13:44:51.491Z,25.10
2018-05-04T13:47:19.563Z,25.62
2018-05-04T13:49:47.543Z,25.78
2018-05-04T13:52:15.965Z,25.37
2018-05-04T13:54:44.011Z,27.18
2018-05-04T13:57:12.976Z,27.22
2018-05-04T13:59:41.015Z,25.80
2018-05-04T14:02:09.054Z,26.15
2018-05-04T14:04:37.025Z,26.09
2018-05-04T14:07:05.047Z,27.12
2018-05-04T14:09:33.078Z,25.74
2018-05-04T14:12:01.088Z,26.52
2018-05-04T14:14:29.111Z,25.99
2018-05-04T14:16:57.131Z,26.05
2018-05-04T14:19:25.134Z,25.83
2018-05-04T14:21:53.189Z,26.34
2018-05-04T14:24:22.001Z,26.98
2018-05-04T14:26:50.077Z,26.63
2018-05-04T14:29:18.135Z,27.00
2018-05-04T14:31:46.120Z,27.53
2018-05-04T14:34:14.176Z,27.04
2018-05-04T14:36:42.215Z,26.82
2018-05-04T14:39:10.236Z,26.08
2018-05-04T14:41:38.191Z,26.31
2018-05-04T14:44:06.329Z,26.20
2018-05-04T14:46:34.376Z,26.64
2018-05-04T14:49:02.384Z,26.43
2018-05-04T14:51:30.517Z,25.53
2018-05-04T14:53:58.839Z,25.93
2018-05-04T14:56:26.917Z,25.38
2018-05-04T15:01:22.111Z,25.29
2018-05-04T15:03:50.140Z,26.21
2018-05-04T15:06:18.250Z,26.35
2018-05-04T15:08:46.271Z,25.54
2018-05-04T15:11:14.210Z,26.05
2018-05-04T15:13:42.215Z,26.77
2018-05-04T15:16:10.208Z,26.33
2018-05-04T15:18:38.287Z,26.95
2018-05-04T15:21:06.313Z,26.65
2018-05-04T15:23:34.349Z,26.68
2018-05-04T15:26:02.506Z,26.72
2018-05-04T15:28:30.497Z,26.12
2018-05-04T15:30:58.478Z,26.52
2018-05-04T15:33:26.567Z,25.14
2018-05-04T15:35:54.578Z,25.23
2018-05-04T15:38:22.516Z,25.44
2018-05-04T15:40:50.529Z,26.67
2018-05-04T15:43:18.518Z,25.93
2018-05-04T15:45:46.466Z,26.95
2018-05-04T15:48:20.138Z,27.89
2018-05-04T15:50:53.767Z,28.62
2018-05-04T15:53:21.795Z,27.88
2018-05-04T15:55:50.144Z,27.35
2018-05-04T15:58:18.180Z,27.00
2018-05-04T16:00:46.295Z,27.61
2018-05-04T16:03:14.290Z,27.56
2018-05-04T16:05:42.308Z,26.45
2018-05-04T16:08:10.286Z,26.10
2018-05-04T16:10:38.275Z,27.01
2018-05-04T16:13:06.246Z,27.70
2018-05-04T16:15:34.331Z,27.10
2018-05-04T16:18:02.282Z,27.10
2018-05-04T16:20:30.320Z,27.41
2018-05-04T16:22:58.330Z,27.13
2018-05-04T16:25:26.334Z,26.73
2018-05-04T16:27:54.342Z,26.93
2018-05-04T16:30:22.361Z,28.24
2018-05-04T16:32:50.449Z,30.68
2018-05-04T16:35:18.493Z,32.03
2018-05-04T16:37:46.466Z,32.38
2018-05-04T16:40:14.480Z,33.37
2018-05-04T16:42:42.528Z,33.39
2018-05-04T16:45:10.530Z,33.98
2018-05-04T16:47:44.184Z,34.35
2018-05-04T16:50:12.175Z,34.28
2018-05-04T16:52:40.250Z,34.96
2018-05-04T16:55:08.227Z,34.95
2018-05-04T16:57:36.618Z,36.62
2018-05-04T17:00:04.735Z,36.14
2018-05-04T17:02:32.713Z,36.54
2018-05-04T17:05:00.865Z,36.84
2018-05-04T17:07:28.922Z,36.53
2018-05-04T17:09:56.991Z,36.43
2018-05-04T17:12:25.041Z,36.86
2018-05-04T17:14:53.056Z,35.99
2018-05-04T17:17:21.172Z,37.35
2018-05-04T17:19:49.222Z,36.78
2018-05-04T17:22:17.292Z,37.45
2018-05-04T17:24:45.296Z,37.90
2018-05-04T17:27:13.302Z,37.93
2018-05-04T17:29:41.350Z,37.67
2018-05-04T17:32:09.387Z,37.95
2018-05-04T17:34:37.446Z,37.95
2018-05-04T17:37:05.513Z,37.78
2018-05-04T17:39:33.572Z,37.92
2018-05-04T17:42:01.596Z,38.05
2018-05-04T17:44:29.555Z,38.50
2018-05-04T17:46:57.567Z,38.44
2018-05-04T17:49:25.659Z,38.89
2018-05-04T17:51:53.642Z,38.19
2018-05-04T17:54:21.669Z,38.99
2018-05-04T17:56:49.724Z,39.65
2018-05-04T17:59:18.127Z,39.26
2018-05-04T18:01:46.205Z,39.11
2018-05-04T18:04:14.194Z,39.38
2018-05-04T18:06:42.224Z,38.59
2018-05-04T18:09:10.222Z,39.17
2018-05-04T18:11:38.163Z,39.28
2018-05-04T18:14:06.169Z,39.57
2018-05-04T18:16:34.165Z,38.47
2018-05-04T18:19:02.133Z,38.20
2018-05-04T18:21:30.146Z,39.23
2018-05-04T18:23:58.107Z,38.68
2018-05-04T18:26:26.142Z,39.36
2018-05-04T18:28:54.165Z,38.79
2018-05-04T18:31:22.215Z,38.67
2018-05-04T18:33:50.263Z,39.66
2018-05-04T18:36:18.209Z,40.81
2018-05-04T18:38:46.194Z,41.88
2018-05-04T18:41:14.218Z,42.27
2018-05-04T18:43:42.193Z,41.27
2018-05-04T18:46:10.206Z,41.78
2018-05-04T18:48:38.226Z,40.67
2018-05-04T18:51:06.377Z,41.87
2018-05-04T18:53:34.387Z,43.32
2018-05-04T18:56:02.439Z,42.16
2018-05-04T18:58:30.447Z,40.98
2018-05-04T19:00:58.416Z,42.10
2018-05-04T19:03:26.408Z,41.04
2018-05-04T19:05:54.443Z,40.38
2018-05-04T19:08:22.410Z,39.68
2018-05-04T19:10:50.419Z,39.40
2018-05-04T19:13:18.429Z,40.16
2018-05-04T19:15:46.349Z,39.89
2018-05-04T19:18:14.373Z,39.64
2018-05-04T19:20:42.456Z,39.23
2018-05-04T19:23:10.444Z,39.60
2018-05-04T19:25:38.481Z,40.96
2018-05-04T19:28:06.487Z,39.97
2018-05-04T19:30:34.439Z,40.80
2018-05-04T19:33:02.453Z,41.48
2018-05-04T19:35:30.485Z,41.40
2018-05-04T19:37:58.483Z,40.17
2018-05-04T19:40:26.483Z,40.02
2018-05-04T19:42:54.506Z,41.26
2018-05-04T19:45:22.541Z,41.50
2018-05-04T19:47:50.558Z,41.00
2018-05-04T19:50:18.515Z,42.17
2018-05-04T19:52:46.492Z,42.45
2018-05-04T19:55:14.620Z,43.01
2018-05-04T19:57:42.662Z,46.28
2018-05-04T20:00:10.644Z,43.80
2018-05-04T20:02:38.720Z,42.97
2018-05-04T20:05:06.697Z,41.67
2018-05-04T20:07:34.716Z,41.56
2018-05-04T20:10:02.819Z,42.59
2018-05-04T20:12:30.802Z,43.15
2018-05-04T20:14:58.860Z,44.21
2018-05-04T20:17:26.815Z,45.29
2018-05-04T20:19:54.883Z,45.89
2018-05-04T20:22:22.892Z,46.78
2018-05-04T20:24:50.953Z,46.41
2018-05-04T20:27:18.893Z,45.55
2018-05-04T20:29:46.942Z,44.92
2018-05-04T20:32:14.937Z,45.68
2018-05-04T20:34:42.906Z,45.57
2018-05-04T20:37:10.883Z,45.72
2018-05-04T20:39:38.949Z,45.28
2018-05-04T20:42:06.857Z,45.18
2018-05-04T20:44:34.835Z,45.05
2018-05-04T20:47:02.849Z,45.01
2018-05-04T20:49:30.907Z,44.58
2018-05-04T20:51:58.942Z,44.45
2018-05-04T20:54:26.873Z,44.97
2018-05-04T20:56:54.969Z,45.46
2018-05-04T20:59:22.954Z,44.61
2018-05-04T21:01:50.975Z,44.40
2018-05-04T21:04:19.161Z,45.20
2018-05-04T21:06:47.223Z,45.35
2018-05-04T21:09:15.147Z,48.65
2018-05-04T21:11:43.197Z,45.55
2018-05-04T21:14:11.198Z,44.96
2018-05-04T21:16:39.169Z,45.01
2018-05-04T21:19:07.127Z,45.19
2018-05-04T21:21:35.141Z,44.95
2018-05-04T21:24:03.152Z,46.40
2018-05-04T21:26:31.149Z,44.76
2018-05-04T21:28:59.191Z,45.55
2018-05-04T21:31:27.237Z,45.92
2018-05-04T21:33:55.200Z,46.65
2018-05-04T21:36:23.208Z,46.04
2018-05-04T21:38:51.180Z,46.58
2018-05-04T21:41:19.199Z,45.60
2018-05-04T21:43:47.242Z,45.90
2018-05-04T21:46:15.241Z,46.00
2018-05-04T21:48:43.261Z,46.56
2018-05-04T21:51:11.328Z,45.60
2018-05-04T21:53:39.275Z,44.88
2018-05-04T21:56:07.349Z,46.35
2018-05-04T21:58:35.350Z,46.18
2018-05-04T22:01:03.368Z,46.82
2018-05-04T22:03:31.382Z,47.56
2018-05-04T22:05:59.919Z,46.93
2018-05-04T22:08:27.902Z,46.78
2018-05-04T22:10:55.912Z,46.04
2018-05-04T22:13:23.935Z,46.57
2018-05-04T22:15:52.853Z,47.38
2018-05-04T22:18:20.837Z,48.22
2018-05-04T22:20:48.988Z,48.10
2018-05-04T22:23:16.983Z,48.18
2018-05-04T22:25:44.954Z,47.20
2018-05-04T22:28:12.991Z,47.08
2018-05-04T22:30:40.971Z,47.15
2018-05-04T22:33:08.934Z,47.25
2018-05-04T22:35:37.624Z,47.81
2018-05-04T22:38:05.626Z,48.03
2018-05-04T22:40:33.683Z,48.04
2018-05-04T22:43:01.739Z,48.29
2018-05-04T22:45:29.804Z,48.87
2018-05-04T22:47:57.821Z,48.99
2018-05-04T22:50:25.826Z,48.62
2018-05-04T22:52:53.860Z,47.54
2018-05-04T22:55:21.867Z,47.52
2018-05-04T22:57:49.865Z,47.65
2018-05-04T23:00:19.663Z,47.67
2018-05-04T23:02:47.779Z,47.32
2018-05-04T23:05:15.835Z,46.61
2018-05-04T23:07:44.200Z,46.50
2018-05-04T23:10:12.242Z,46.87
2018-05-04T23:12:40.276Z,48.00
2018-05-04T23:15:08.306Z,48.44
2018-05-04T23:17:36.306Z,48.54
2018-05-04T23:20:04.374Z,49.79
2018-05-04T23:22:32.353Z,47.75
2018-05-04T23:25:00.398Z,47.78
2018-05-04T23:27:28.391Z,47.53
2018-05-04T23:29:56.531Z,46.59
2018-05-04T23:32:24.486Z,46.10
2018-05-04T23:34:52.590Z,46.85
2018-05-04T23:37:21.448Z,46.77
2018-05-04T23:39:49.505Z,47.29
2018-05-04T23:42:17.482Z,46.41
2018-05-04T23:44:45.500Z,46.06
2018-05-04T23:47:13.445Z,46.01
2018-05-04T23:49:41.426Z,45.27
2018-05-04T23:52:09.428Z,45.35
2018-05-04T23:54:37.573Z,44.92
2018-05-04T23:57:05.538Z,46.05
2018-05-04T23:59:33.531Z,46.07
